Time;durP1;ratioP1;P1;durP2;ratioP2;P2;SDS_P1;SDS_P2;PMS_P1;PMS_P2;Temp;Humidity;BMP_temperature;BMP_pressure;BME280_temperature;BME280_humidity;BME280_pressure;Samples;Min_cycle;Max_cycle;Signal;HPM_P1;HPM_P2
2024/01/16 00:02:03;;;;;;;2.22;0.40;;;0.80;99.90;;;;;;5045762;28;20090;-70
2024/01/16 00:04:30;;;;;;;2.00;0.50;;;0.80;99.90;;;;;;5051889;28;20040;-70
2024/01/16 00:06:56;;;;;;;3.38;0.50;;;0.80;99.90;;;;;;5052535;28;20044;-71
2024/01/16 00:09:23;;;;;;;2.63;0.60;;;0.80;99.90;;;;;;5063373;28;20346;-70
2024/01/16 00:11:48;;;;;;;;;;;0.80;99.90;;;;;;5068326;28;20040;-70
2024/01/16 00:14:14;;;;;;;3.45;0.20;;;0.80;99.90;;;;;;5063925;28;20272;-70
2024/01/16 00:16:43;;;;;;;3.80;0.43;;;0.70;99.90;;;;;;5060223;28;20562;-70
2024/01/16 00:19:10;;;;;;;5.35;0.40;;;0.70;99.90;;;;;;5072680;28;20036;-70
2024/01/16 00:21:40;;;;;;;2.95;0.40;;;0.70;99.90;;;;;;5045968;28;20080;-70
2024/01/16 00:24:06;;;;;;;3.35;0.70;;;0.70;99.90;;;;;;5038643;28;20507;-71
2024/01/16 00:26:32;;;;;;;1.23;0.35;;;0.70;99.90;;;;;;5065658;28;20535;-70
2024/01/16 00:28:58;;;;;;;6.20;0.70;;;0.70;99.90;;;;;;5047808;28;20048;-70
2024/01/16 00:31:23;;;;;;;7.53;0.73;;;0.70;99.90;;;;;;5051342;28;20043;-71
2024/01/16 00:33:49;;;;;;;1.47;0.40;;;0.70;99.90;;;;;;5059629;28;20040;-71
2024/01/16 00:36:17;;;;;;;3.00;0.57;;;0.70;99.90;;;;;;5074552;28;20043;-71
2024/01/16 00:38:43;;;;;;;8.23;0.52;;;0.70;99.90;;;;;;5074152;28;20032;-70
2024/01/16 00:41:09;;;;;;;4.90;0.50;;;0.80;99.90;;;;;;5031213;28;20587;-70
2024/01/16 00:43:35;;;;;;;3.47;1.10;;;0.80;99.90;;;;;;5068547;28;20060;-70
2024/01/16 00:46:01;;;;;;;2.97;0.85;;;0.80;99.90;;;;;;5056025;28;20416;-70
2024/01/16 00:48:26;;;;;;;9.55;1.40;;;0.90;99.90;;;;;;5060591;28;20040;-71
2024/01/16 00:50:52;;;;;;;4.63;1.47;;;0.90;99.90;;;;;;5070723;28;20041;-71
2024/01/16 00:53:18;;;;;;;7.80;1.00;;;0.90;99.90;;;;;;5054827;28;20048;-71
2024/01/16 00:55:43;;;;;;;8.33;1.93;;;1.00;99.90;;;;;;5040135;28;20108;-71
2024/01/16 00:58:09;;;;;;;4.23;0.70;;;0.90;99.90;;;;;;5064788;28;20045;-71
2024/01/16 01:00:42;;;;;;;2.75;0.93;;;0.90;99.90;;;;;;5060758;28;20400;-70
2024/01/16 01:03:07;;;;;;;4.35;0.40;;;0.80;99.90;;;;;;5050398;28;20040;-71
2024/01/16 01:05:33;;;;;;;4.30;0.70;;;0.80;99.90;;;;;;5053115;28;20032;-71
2024/01/16 01:07:58;;;;;;;3.47;0.50;;;0.80;99.90;;;;;;5057614;28;20120;-71
2024/01/16 01:10:24;;;;;;;3.60;0.97;;;0.70;99.90;;;;;;5034516;28;20079;-71
2024/01/16 01:12:53;;;;;;;4.70;0.43;;;0.70;99.90;;;;;;5065842;28;20040;-71
2024/01/16 01:15:20;;;;;;;2.88;0.43;;;0.60;99.90;;;;;;5071000;28;20048;-71
2024/01/16 01:17:48;;;;;;;2.72;0.55;;;0.60;99.90;;;;;;5063438;28;20062;-71
2024/01/16 01:20:13;;;;;;;3.92;0.30;;;0.60;99.90;;;;;;5074513;28;20127;-71
2024/01/16 01:22:39;;;;;;;2.30;0.57;;;0.50;99.90;;;;;;5062833;28;20140;-71
2024/01/16 01:25:08;;;;;;;3.53;0.60;;;0.50;99.90;;;;;;5073703;28;20080;-71
2024/01/16 01:27:33;;;;;;;1.30;0.60;;;0.50;99.90;;;;;;5056194;28;20386;-71
2024/01/16 01:29:59;;;;;;;8.43;1.37;;;0.50;99.90;;;;;;5049773;28;20089;-71
2024/01/16 01:32:26;;;;;;;11.13;1.00;;;0.50;99.90;;;;;;5031736;28;20067;-71
2024/01/16 01:34:54;;;;;;;5.10;1.30;;;0.50;99.90;;;;;;5076264;28;20055;-71
2024/01/16 01:37:20;;;;;;;3.97;1.50;;;0.50;99.90;;;;;;5047299;28;20041;-71
2024/01/16 01:39:45;;;;;;;4.30;0.60;;;0.60;99.90;;;;;;5043732;28;20481;-71
2024/01/16 01:42:14;;;;;;;5.83;0.90;;;0.60;99.90;;;;;;5042871;28;20082;-71
2024/01/16 01:44:41;;;;;;;3.58;0.90;;;0.60;99.90;;;;;;5053416;28;20044;-70
2024/01/16 01:47:08;;;;;;;4.03;1.02;;;0.70;99.90;;;;;;5072271;28;20045;-71
2024/01/16 01:49:35;;;;;;;5.10;0.55;;;0.70;99.90;;;;;;5044043;28;20128;-71
2024/01/16 01:52:00;;;;;;;12.68;0.80;;;0.70;99.90;;;;;;5066146;28;20044;-71
2024/01/16 01:54:27;;;;;;;7.73;0.63;;;0.70;99.90;;;;;;5073343;28;20090;-71
2024/01/16 01:56:52;;;;;;;3.90;0.55;;;0.70;99.90;;;;;;5077982;28;20577;-71
2024/01/16 01:59:19;;;;;;;7.43;0.60;;;0.70;99.90;;;;;;5048129;28;20254;-71
2024/01/16 02:01:46;;;;;;;;;;;0.70;99.90;;;;;;5053983;28;20041;-71
2024/01/16 02:04:14;;;;;;;4.90;0.57;;;0.70;99.90;;;;;;5036412;28;19917;-71
2024/01/16 02:06:42;;;;;;;4.22;0.70;;;0.70;99.90;;;;;;5051869;28;20037;-71
2024/01/16 02:09:07;;;;;;;3.85;0.70;;;0.80;99.90;;;;;;5044193;28;20040;-71
2024/01/16 02:11:33;;;;;;;3.90;0.97;;;0.70;99.90;;;;;;5037608;28;20044;-71
2024/01/16 02:13:59;;;;;;;3.23;0.50;;;0.70;99.90;;;;;;5072343;28;20044;-71
2024/01/16 02:16:24;;;;;;;2.93;0.50;;;0.70;99.90;;;;;;5051663;28;20510;-71
2024/01/16 02:18:52;;;;;;;3.73;0.70;;;0.70;99.90;;;;;;5063300;28;20040;-71
2024/01/16 02:21:22;;;;;;;2.45;0.70;;;0.60;99.90;;;;;;5044710;28;20064;-71
2024/01/16 02:23:48;;;;;;;1.58;0.65;;;0.60;99.90;;;;;;5046284;28;20067;-71
2024/01/16 02:26:15;;;;;;;3.17;0.70;;;0.60;99.90;;;;;;5038176;28;20063;-71
2024/01/16 02:28:41;;;;;;;7.10;0.60;;;0.50;99.90;;;;;;5033837;28;20095;-71
2024/01/16 02:31:08;;;;;;;3.83;0.67;;;0.50;99.90;;;;;;5052438;28;20158;-71
2024/01/16 02:33:36;;;;;;;4.50;0.65;;;0.40;99.90;;;;;;5049171;28;20115;-71
2024/01/16 02:36:02;;;;;;;2.60;0.47;;;0.40;99.90;;;;;;5048460;28;20128;-71
2024/01/16 02:38:28;;;;;;;6.53;0.77;;;0.30;99.90;;;;;;5042500;28;20067;-70
2024/01/16 02:40:53;;;;;;;3.03;1.17;;;0.40;99.90;;;;;;5050101;28;20633;-71
2024/01/16 02:43:19;;;;;;;3.77;0.67;;;0.30;99.90;;;;;;5053770;28;20813;-71
2024/01/16 02:45:45;;;;;;;7.00;1.03;;;0.30;99.90;;;;;;5047081;28;20036;-70
2024/01/16 02:48:11;;;;;;;5.03;0.73;;;0.30;99.90;;;;;;5072440;28;20067;-71
2024/01/16 02:50:38;;;;;;;2.75;0.77;;;0.30;99.90;;;;;;5068101;28;20036;-71
2024/01/16 02:53:04;;;;;;;2.53;0.73;;;0.30;99.90;;;;;;5072644;28;20137;-71
2024/01/16 02:55:29;;;;;;;2.03;0.50;;;0.20;99.90;;;;;;5052033;28;20040;-71
2024/01/16 02:57:55;;;;;;;3.10;0.87;;;0.20;99.90;;;;;;5064060;28;20040;-71
2024/01/16 03:00:22;;;;;;;5.03;0.77;;;0.20;99.90;;;;;;5067192;28;20040;-71
2024/01/16 03:02:48;;;;;;;4.25;0.63;;;0.20;99.90;;;;;;5037554;28;20037;-71
2024/01/16 03:05:16;;;;;;;6.18;0.70;;;0.20;99.90;;;;;;5061580;28;20135;-71
2024/01/16 03:07:42;;;;;;;5.13;0.57;;;0.20;99.90;;;;;;5043926;28;20044;-71
2024/01/16 03:10:11;;;;;;;3.72;0.70;;;0.30;99.90;;;;;;5042641;28;20071;-71
2024/01/16 03:12:37;;;;;;;2.20;0.47;;;0.30;99.90;;;;;;5037198;28;20116;-71
2024/01/16 03:15:03;;;;;;;3.40;0.50;;;0.20;99.90;;;;;;5050684;28;20036;-71
2024/01/16 03:17:28;;;;;;;4.32;0.90;;;0.30;99.90;;;;;;5065996;28;20041;-71
2024/01/16 03:19:56;;;;;;;5.33;1.20;;;0.30;99.90;;;;;;5065074;28;20048;-71
2024/01/16 03:22:22;;;;;;;5.20;1.27;;;0.30;99.90;;;;;;5043214;28;20059;-71
2024/01/16 03:24:48;;;;;;;9.35;1.55;;;0.30;99.90;;;;;;5046256;28;20044;-71
2024/01/16 03:27:14;;;;;;;7.77;1.37;;;0.30;99.90;;;;;;5050226;28;20041;-71
2024/01/16 03:29:39;;;;;;;6.87;1.23;;;0.30;99.90;;;;;;5044284;28;20033;-71
2024/01/16 03:32:05;;;;;;;4.07;0.60;;;0.30;99.90;;;;;;5047874;28;20036;-71
2024/01/16 03:34:31;;;;;;;1.27;0.30;;;0.30;99.90;;;;;;5054037;28;20054;-71
2024/01/16 03:36:57;;;;;;;1.50;0.65;;;0.30;99.90;;;;;;5057937;28;20421;-71
2024/01/16 03:39:23;;;;;;;2.97;0.60;;;0.30;99.90;;;;;;5071346;28;20143;-71
2024/01/16 03:41:48;;;;;;;4.73;0.40;;;0.30;99.90;;;;;;5052565;28;20041;-71
2024/01/16 03:44:14;;;;;;;10.30;0.90;;;0.30;99.90;;;;;;5067600;28;20052;-71
2024/01/16 03:46:39;;;;;;;10.97;1.40;;;0.30;99.90;;;;;;5052850;28;20442;-71
2024/01/16 03:49:05;;;;;;;4.90;0.73;;;0.30;99.90;;;;;;5066390;28;20047;-71
2024/01/16 03:51:30;;;;;;;2.33;0.50;;;0.30;99.90;;;;;;5071319;28;20518;-71
2024/01/16 03:53:56;;;;;;;6.47;0.87;;;0.40;99.90;;;;;;5046598;28;20102;-71
2024/01/16 03:56:22;;;;;;;3.70;0.50;;;0.40;99.90;;;;;;5046500;28;20040;-71
2024/01/16 03:58:48;;;;;;;7.80;0.70;;;0.40;99.90;;;;;;5065784;28;20161;-69
2024/01/16 04:01:14;;;;;;;5.30;0.50;;;0.40;99.90;;;;;;5065868;28;20057;-70
2024/01/16 04:03:40;;;;;;;4.88;0.55;;;0.40;99.90;;;;;;5066678;28;20437;-70
2024/01/16 04:06:18;;;;;;;4.15;0.50;;;0.40;99.90;;;;;;5050690;28;20121;-70
2024/01/16 04:08:45;;;;;;;3.38;0.70;;;0.40;99.90;;;;;;5040319;28;20055;-70
2024/01/16 04:11:14;;;;;;;4.53;0.50;;;0.40;99.90;;;;;;5071997;28;20078;-70
2024/01/16 04:13:41;;;;;;;2.33;0.82;;;0.40;99.90;;;;;;5058169;28;20052;-71
2024/01/16 04:16:06;;;;;;;5.18;0.55;;;0.50;99.90;;;;;;5066234;28;20036;-70
2024/01/16 04:18:40;;;;;;;3.43;0.60;;;0.50;99.90;;;;;;5044115;28;20459;-71
2024/01/16 04:21:09;;;;;;;4.18;0.60;;;0.50;99.90;;;;;;5049900;28;20031;-70
2024/01/16 04:23:34;;;;;;;5.00;0.70;;;0.40;99.90;;;;;;5067091;28;20098;-71
2024/01/16 04:26:00;;;;;;;4.93;0.70;;;0.50;99.90;;;;;;5051094;28;20489;-71
2024/01/16 04:28:28;;;;;;;6.67;0.67;;;0.50;99.90;;;;;;5072533;28;20036;-70
2024/01/16 04:30:53;;;;;;;3.25;0.52;;;0.50;99.90;;;;;;5049615;28;20116;-70
2024/01/16 04:33:19;;;;;;;3.23;0.87;;;0.50;99.90;;;;;;5054984;28;20132;-70
2024/01/16 04:35:45;;;;;;;7.47;0.53;;;0.50;99.90;;;;;;5068082;28;20094;-71
2024/01/16 04:38:11;;;;;;;3.10;0.70;;;0.50;99.90;;;;;;5047628;28;20066;-70
2024/01/16 04:40:39;;;;;;;4.90;0.60;;;0.50;99.90;;;;;;5028600;28;20083;-70
2024/01/16 04:43:05;;;;;;;4.95;0.47;;;0.50;99.90;;;;;;5072549;28;20537;-71
2024/01/16 04:45:30;;;;;;;6.70;0.52;;;0.50;99.90;;;;;;5070757;28;20078;-70
2024/01/16 04:47:56;;;;;;;2.10;0.47;;;0.50;99.90;;;;;;5047811;28;20051;-70
2024/01/16 04:50:22;;;;;;;4.67;0.50;;;0.60;99.90;;;;;;5070390;28;20028;-70
2024/01/16 04:52:48;;;;;;;4.20;1.02;;;0.60;99.90;;;;;;5040326;28;20040;-70
2024/01/16 04:55:16;;;;;;;5.70;0.77;;;0.50;99.90;;;;;;5068506;28;20039;-70
2024/01/16 04:57:42;;;;;;;5.13;0.70;;;0.50;99.90;;;;;;5031997;28;20032;-70
2024/01/16 05:00:08;;;;;;;2.83;0.63;;;0.60;99.90;;;;;;5050418;28;20055;-70
2024/01/16 05:02:34;;;;;;;4.45;0.73;;;0.60;99.90;;;;;;5068372;28;20045;-69
2024/01/16 05:05:00;;;;;;;6.70;0.60;;;0.60;99.90;;;;;;5048007;28;20090;-70
2024/01/16 05:07:26;;;;;;;4.70;1.07;;;0.60;99.90;;;;;;5051229;28;20131;-70
2024/01/16 05:09:52;;;;;;;3.47;0.90;;;0.60;99.90;;;;;;5049114;28;20289;-70
2024/01/16 05:12:18;;;;;;;6.75;1.17;;;0.60;99.90;;;;;;5052229;28;20491;-70
2024/01/16 05:14:43;;;;;;;6.17;0.60;;;0.60;99.90;;;;;;5044410;28;20055;-70
2024/01/16 05:17:09;;;;;;;8.70;1.10;;;0.60;99.90;;;;;;5065470;28;20072;-70
2024/01/16 05:19:35;;;;;;;2.90;0.87;;;0.60;99.90;;;;;;5051792;28;20106;-70
2024/01/16 05:22:00;;;;;;;5.13;0.70;;;0.60;99.90;;;;;;5067317;28;20438;-70
2024/01/16 05:24:26;;;;;;;5.80;0.70;;;0.60;99.90;;;;;;5065118;28;20036;-70
2024/01/16 05:26:51;;;;;;;2.93;0.63;;;0.60;99.90;;;;;;5039330;28;20520;-69
2024/01/16 05:29:18;;;;;;;5.90;0.60;;;0.50;99.90;;;;;;5047697;28;20033;-70
2024/01/16 05:31:43;;;;;;;2.72;0.47;;;0.60;99.90;;;;;;5049411;28;20493;-70
2024/01/16 05:34:12;;;;;;;5.00;0.97;;;0.60;99.90;;;;;;5039765;28;20109;-70
2024/01/16 05:36:38;;;;;;;2.10;0.70;;;0.60;99.90;;;;;;5050491;28;20047;-70
2024/01/16 05:39:04;;;;;;;2.40;0.60;;;0.60;99.90;;;;;;5047950;28;20045;-68
2024/01/16 05:41:35;;;;;;;8.53;0.90;;;0.50;99.90;;;;;;5043840;28;20541;-68
2024/01/16 05:44:03;;;;;;;5.35;0.88;;;0.60;99.90;;;;;;5064581;28;20079;-68
2024/01/16 05:46:33;;;;;;;6.22;0.45;;;0.60;99.90;;;;;;5063342;28;20040;-68
2024/01/16 05:48:58;;;;;;;2.67;0.45;;;0.70;99.90;;;;;;5045201;28;20047;-68
2024/01/16 05:51:27;;;;;;;4.10;0.73;;;0.60;99.90;;;;;;5049665;28;20040;-69
2024/01/16 05:53:52;;;;;;;9.05;1.20;;;0.60;99.90;;;;;;5044548;28;20037;-69
2024/01/16 05:56:18;;;;;;;4.50;0.60;;;0.70;99.90;;;;;;5065988;28;20424;-68
2024/01/16 05:58:43;;;;;;;10.33;1.10;;;0.70;99.90;;;;;;5034339;28;20040;-68
2024/01/16 06:01:09;;;;;;;8.40;0.83;;;0.60;99.90;;;;;;5045222;28;20439;-69
2024/01/16 06:03:35;;;;;;;4.87;0.70;;;0.70;99.90;;;;;;5040067;28;20036;-70
2024/01/16 06:06:00;;;;;;;4.47;0.60;;;0.70;99.90;;;;;;5046439;28;20042;-68
2024/01/16 06:08:26;;;;;;;1.27;0.40;;;0.70;99.90;;;;;;5044634;28;20435;-69
2024/01/16 06:10:54;;;;;;;3.30;0.63;;;0.70;99.90;;;;;;5025183;28;20051;-69
2024/01/16 06:13:22;;;;;;;5.60;1.00;;;0.60;99.90;;;;;;5060297;28;20044;-69
2024/01/16 06:15:50;;;;;;;2.35;0.75;;;0.60;99.90;;;;;;5044518;28;20049;-75
2024/01/16 06:18:15;;;;;;;10.15;0.95;;;0.60;99.90;;;;;;5056791;28;20469;-72
2024/01/16 06:20:41;;;;;;;4.83;0.50;;;0.70;99.90;;;;;;5066791;28;20040;-72
2024/01/16 06:23:07;;;;;;;5.00;0.73;;;0.70;99.90;;;;;;5050439;28;20057;-72
2024/01/16 06:25:32;;;;;;;5.07;1.10;;;0.70;99.90;;;;;;5070188;28;20036;-70
2024/01/16 06:27:58;;;;;;;7.37;0.60;;;0.70;99.90;;;;;;5065184;28;20036;-70
2024/01/16 06:30:23;;;;;;;6.87;0.93;;;0.70;99.90;;;;;;5065132;28;20473;-71
2024/01/16 06:32:49;;;;;;;5.67;0.73;;;0.70;99.90;;;;;;5043305;28;20041;-68
2024/01/16 06:35:16;;;;;;;6.32;0.82;;;0.80;99.90;;;;;;5038540;28;20381;-69
2024/01/16 06:37:45;;;;;;;2.97;0.50;;;0.80;99.90;;;;;;5044297;28;20044;-78
2024/01/16 06:40:11;;;;;;;4.80;0.57;;;0.80;99.90;;;;;;5040332;28;20086;-69
2024/01/16 06:42:36;;;;;;;7.53;0.90;;;0.80;99.90;;;;;;5039805;28;20041;-69
2024/01/16 06:45:06;;;;;;;2.90;0.70;;;0.80;99.90;;;;;;5061099;28;20047;-69
2024/01/16 06:47:32;;;;;;;10.50;1.27;;;0.80;99.90;;;;;;5042131;28;20072;-69
2024/01/16 06:49:58;;;;;;;8.70;0.93;;;0.80;99.90;;;;;;5035589;28;20045;-80
2024/01/16 06:52:24;;;;;;;4.57;0.90;;;0.80;99.90;;;;;;5040823;28;20097;-70
2024/01/16 06:54:50;;;;;;;1.15;0.60;;;0.80;99.90;;;;;;5056063;28;20127;-69
2024/01/16 06:57:16;;;;;;;4.72;0.60;;;0.80;99.90;;;;;;5055555;28;20048;-69
2024/01/16 06:59:41;;;;;;;2.60;0.37;;;0.80;99.90;;;;;;5045434;28;20048;-69
2024/01/16 07:02:08;;;;;;;3.57;0.50;;;0.80;99.90;;;;;;5038799;28;20223;-79
2024/01/16 07:04:33;;;;;;;2.63;0.80;;;0.80;99.90;;;;;;5042135;28;20032;-69
2024/01/16 07:06:59;;;;;;;2.27;0.63;;;0.70;99.90;;;;;;5053838;28;20040;-69
2024/01/16 07:09:27;;;;;;;5.40;0.80;;;0.80;99.90;;;;;;5011204;28;20097;-72
2024/01/16 07:11:53;;;;;;;4.82;0.80;;;0.70;99.90;;;;;;5062013;28;20044;-72
2024/01/16 07:14:19;;;;;;;4.40;0.50;;;0.70;99.90;;;;;;5047242;28;20045;-71
2024/01/16 07:16:47;;;;;;;5.45;0.90;;;0.70;99.90;;;;;;5043390;28;20073;-69
2024/01/16 07:19:13;;;;;;;3.00;0.37;;;0.70;99.90;;;;;;5058950;28;20036;-69
2024/01/16 07:21:42;;;;;;;3.93;0.70;;;0.70;99.90;;;;;;5038387;28;20471;-72
2024/01/16 07:24:10;;;;;;;4.65;0.63;;;0.80;99.90;;;;;;5040418;28;20040;-70
2024/01/16 07:26:36;;;;;;;3.95;0.73;;;0.80;99.90;;;;;;5068243;28;20033;-72
2024/01/16 07:29:02;;;;;;;2.43;0.30;;;0.80;99.90;;;;;;5037929;28;20467;-69
2024/01/16 07:31:27;;;;;;;2.80;0.53;;;0.80;99.90;;;;;;5053071;28;20574;-69
2024/01/16 07:33:53;;;;;;;4.87;1.70;;;0.80;99.90;;;;;;5061096;28;20036;-70
2024/01/16 07:36:18;;;;;;;1.87;0.40;;;0.80;99.90;;;;;;5056034;28;20040;-69
2024/01/16 07:38:44;;;;;;;1.50;0.40;;;0.80;99.90;;;;;;5022970;28;20040;-69
2024/01/16 07:41:10;;;;;;;5.30;0.43;;;0.80;99.90;;;;;;5051578;28;20515;-69
2024/01/16 07:43:35;;;;;;;3.50;0.50;;;0.70;99.90;;;;;;5043056;28;20036;-70
2024/01/16 07:46:02;;;;;;;1.67;0.50;;;0.70;99.90;;;;;;5055755;28;20471;-69
2024/01/16 07:48:29;;;;;;;4.65;0.75;;;0.70;99.90;;;;;;5055227;28;20251;-69
2024/01/16 07:50:55;;;;;;;3.53;0.60;;;0.70;99.90;;;;;;5038563;28;20377;-70
2024/01/16 07:53:20;;;;;;;4.03;0.40;;;0.70;99.90;;;;;;5061116;28;20167;-74
2024/01/16 07:55:46;;;;;;;2.80;0.50;;;0.70;99.90;;;;;;5046803;28;20032;-70
2024/01/16 07:58:14;;;;;;;7.33;0.80;;;0.70;99.90;;;;;;5050367;28;20040;-70
2024/01/16 08:00:40;;;;;;;2.78;0.40;;;0.80;99.90;;;;;;5064969;28;20037;-70
2024/01/16 08:03:10;;;;;;;1.63;0.73;;;0.80;99.90;;;;;;5048337;28;20048;-70
2024/01/16 08:05:36;;;;;;;3.60;0.77;;;0.80;99.90;;;;;;5066751;28;20044;-68
2024/01/16 08:08:02;;;;;;;2.70;0.57;;;0.80;99.90;;;;;;5029300;28;20036;-69
2024/01/16 08:10:28;;;;;;;1.55;0.45;;;0.80;99.90;;;;;;5051700;28;20480;-69
2024/01/16 08:12:54;;;;;;;4.80;0.70;;;0.90;99.90;;;;;;5048267;28;20063;-69
2024/01/16 08:15:19;;;;;;;1.60;0.47;;;0.90;99.90;;;;;;5065939;28;20040;-69
2024/01/16 08:17:45;;;;;;;2.10;0.70;;;0.90;99.90;;;;;;5050313;28;20424;-69
2024/01/16 08:20:12;;;;;;;6.90;1.10;;;0.90;99.90;;;;;;5036941;28;20040;-69
2024/01/16 08:22:38;;;;;;;2.42;1.02;;;0.90;99.90;;;;;;5061771;28;20072;-69
2024/01/16 08:25:07;;;;;;;6.07;0.53;;;1.00;99.90;;;;;;5045800;28;20129;-69
2024/01/16 08:27:33;;;;;;;5.88;1.05;;;0.90;99.90;;;;;;5033816;28;20036;-69
2024/01/16 08:30:00;;;;;;;6.68;0.93;;;1.00;99.90;;;;;;5052600;28;20345;-69
2024/01/16 08:32:27;;;;;;;4.88;0.68;;;0.90;99.90;;;;;;5048518;28;20058;-68
2024/01/16 08:34:53;;;;;;;2.10;0.60;;;0.90;99.90;;;;;;5050630;28;20044;-70
2024/01/16 08:37:18;;;;;;;8.23;1.08;;;1.00;99.90;;;;;;5048899;28;20118;-68
2024/01/16 08:39:44;;;;;;;6.30;0.77;;;1.00;99.90;;;;;;5070639;28;20159;-69
2024/01/16 08:42:11;;;;;;;3.80;0.50;;;1.00;99.90;;;;;;5050562;28;20040;-69
2024/01/16 08:44:39;;;;;;;3.40;0.40;;;1.00;99.90;;;;;;5049822;28;20094;-69
2024/01/16 08:47:06;;;;;;;2.35;0.40;;;1.00;99.90;;;;;;5066705;28;20409;-69
2024/01/16 08:49:32;;;;;;;3.50;0.80;;;1.00;99.90;;;;;;5065111;28;22168;-69
2024/01/16 08:51:58;;;;;;;;;;;1.10;99.90;;;;;;5050960;28;20087;-69
2024/01/16 08:54:25;;;;;;;3.97;0.47;;;1.10;99.90;;;;;;5052116;28;20340;-69
2024/01/16 08:56:51;;;;;;;3.25;0.68;;;1.10;99.90;;;;;;5063628;28;20044;-69
2024/01/16 08:59:17;;;;;;;2.93;0.33;;;1.20;99.90;;;;;;5046454;28;20534;-69
2024/01/16 09:01:42;;;;;;;6.27;0.60;;;1.20;99.90;;;;;;5031572;28;20047;-69
2024/01/16 09:04:08;;;;;;;1.97;0.53;;;1.20;99.90;;;;;;5069823;28;20500;-69
2024/01/16 09:06:34;;;;;;;3.30;0.30;;;1.20;99.90;;;;;;5067089;28;20033;-69
2024/01/16 09:08:59;;;;;;;3.70;0.70;;;1.20;99.90;;;;;;5048277;28;20094;-69
2024/01/16 09:11:25;;;;;;;3.67;0.60;;;1.30;99.90;;;;;;5049013;28;20409;-68
2024/01/16 09:13:51;;;;;;;1.57;0.40;;;1.30;99.90;;;;;;5050973;28;20049;-69
2024/01/16 09:16:17;;;;;;;4.13;0.85;;;1.30;99.90;;;;;;5038082;28;20489;-69
2024/01/16 09:18:44;;;;;;;1.58;0.45;;;1.30;99.90;;;;;;5069279;28;20036;-69
2024/01/16 09:21:09;;;;;;;;;;;1.30;99.90;;;;;;5067467;28;20041;-69
2024/01/16 09:23:35;;;;;;;2.80;0.40;;;1.30;99.90;;;;;;5046134;28;19924;-68
2024/01/16 09:26:00;;;;;;;0.67;0.30;;;1.30;99.90;;;;;;5050028;28;20041;-69
2024/01/16 09:28:28;;;;;;;2.80;0.50;;;1.30;99.90;;;;;;5065881;28;20062;-69
2024/01/16 09:30:55;;;;;;;1.50;0.40;;;1.30;99.90;;;;;;5071088;28;20032;-70
2024/01/16 09:33:27;;;;;;;4.50;0.45;;;1.40;99.90;;;;;;5079445;28;20401;-70
2024/01/16 09:35:53;;;;;;;1.65;0.60;;;1.40;99.90;;;;;;5053252;28;20052;-70
2024/01/16 09:38:19;;;;;;;1.30;0.30;;;1.50;99.90;;;;;;5049562;28;20039;-70
2024/01/16 09:40:46;;;;;;;1.63;0.50;;;1.50;99.90;;;;;;5064060;28;20276;-70
2024/01/16 09:43:12;;;;;;;3.05;0.50;;;1.50;99.90;;;;;;5056999;28;20060;-69
2024/01/16 09:45:38;;;;;;;3.65;0.70;;;1.60;99.90;;;;;;5058453;28;20040;-69
2024/01/16 09:48:05;;;;;;;7.70;0.63;;;1.60;99.90;;;;;;5043195;28;20438;-70
2024/01/16 09:50:31;;;;;;;3.47;0.60;;;1.70;99.90;;;;;;5051359;28;20045;-69
2024/01/16 09:52:56;;;;;;;2.87;0.53;;;1.80;99.90;;;;;;5066220;28;20381;-70
2024/01/16 09:55:22;;;;;;;4.83;0.80;;;1.80;99.90;;;;;;5053746;28;20557;-70
2024/01/16 09:57:51;;;;;;;1.23;0.70;;;1.90;99.90;;;;;;5071069;28;20265;-70
2024/01/16 10:00:18;;;;;;;3.33;0.45;;;1.90;99.90;;;;;;5051433;28;20610;-68
2024/01/16 10:02:43;;;;;;;1.67;0.30;;;2.00;99.90;;;;;;5052409;28;20067;-69
2024/01/16 10:05:13;;;;;;;2.63;0.47;;;2.00;99.90;;;;;;5077358;28;20048;-69
2024/01/16 10:07:41;;;;;;;1.33;0.57;;;2.00;99.90;;;;;;5044661;28;20449;-71
2024/01/16 10:10:10;;;;;;;6.15;0.70;;;2.00;99.90;;;;;;5056958;28;20044;-68
2024/01/16 10:12:38;;;;;;;3.83;0.80;;;2.00;99.90;;;;;;5050940;28;20075;-69
2024/01/16 10:15:07;;;;;;;3.30;0.70;;;1.90;99.90;;;;;;5046026;28;20048;-68
2024/01/16 10:17:43;;;;;;;4.97;0.90;;;1.90;99.90;;;;;;5038728;28;20524;-68
2024/01/16 10:20:13;;;;;;;4.57;0.90;;;1.90;99.90;;;;;;5053556;28;20202;-69
2024/01/16 10:22:40;;;;;;;3.22;1.00;;;1.90;99.90;;;;;;5042234;28;20064;-68
2024/01/16 10:25:09;;;;;;;6.10;1.08;;;1.80;99.90;;;;;;5077289;28;20110;-70
2024/01/16 10:27:36;;;;;;;3.20;1.17;;;1.80;99.90;;;;;;5036994;28;20393;-68
2024/01/16 10:30:03;;;;;;;4.03;0.93;;;1.80;99.90;;;;;;5044202;28;20044;-69
2024/01/16 10:32:30;;;;;;;2.72;1.05;;;1.80;99.90;;;;;;5053771;28;20051;-69
2024/01/16 10:35:10;;;;;;;3.22;0.95;;;1.80;99.90;;;;;;5041880;28;20055;-69
2024/01/16 10:37:53;;;;;;;5.53;1.20;;;1.80;99.90;;;;;;5058496;28;20062;-69
2024/01/16 10:40:26;;;;;;;2.78;0.90;;;1.80;99.90;;;;;;5059138;28;20496;-68
2024/01/16 10:43:00;;;;;;;2.03;0.75;;;1.70;99.90;;;;;;5040631;28;20044;-69
2024/01/16 10:45:26;;;;;;;1.13;0.55;;;1.50;99.90;;;;;;5063428;28;20052;-68
2024/01/16 10:48:06;;;;;;;0.88;0.60;;;1.50;99.90;;;;;;5050571;28;20052;-68
2024/01/16 10:50:37;;;;;;;2.58;0.80;;;1.30;99.90;;;;;;5065501;28;20173;-68
2024/01/16 10:53:05;;;;;;;4.32;1.15;;;1.30;99.90;;;;;;5042401;28;20520;-68
2024/01/16 10:55:33;;;;;;;2.15;0.75;;;1.30;99.90;;;;;;5049820;28;20067;-68
2024/01/16 10:58:02;;;;;;;1.48;0.90;;;1.30;99.90;;;;;;5059036;28;20072;-69
2024/01/16 11:00:30;;;;;;;2.72;0.90;;;1.20;99.90;;;;;;5058291;28;20044;-69
2024/01/16 11:03:01;;;;;;;3.28;0.95;;;1.20;99.90;;;;;;5066860;28;20051;-69
2024/01/16 11:05:30;;;;;;;2.67;1.23;;;1.30;99.90;;;;;;5053794;28;20043;-68
2024/01/16 11:07:58;;;;;;;2.40;1.10;;;1.20;99.90;;;;;;5071114;28;20043;-68
2024/01/16 11:10:25;;;;;;;6.10;1.15;;;1.30;99.90;;;;;;5049584;28;20040;-68
2024/01/16 11:12:52;;;;;;;2.10;1.00;;;1.30;99.90;;;;;;5064755;28;20110;-68
2024/01/16 11:15:19;;;;;;;3.70;1.50;;;1.40;99.90;;;;;;5050807;28;20501;-68
2024/01/16 11:17:45;;;;;;;4.28;2.38;;;1.40;99.90;;;;;;5065722;28;20040;-68
2024/01/16 11:20:13;;;;;;;4.10;1.48;;;1.50;99.90;;;;;;5050945;28;20055;-69
2024/01/16 11:22:41;;;;;;;5.43;1.17;;;1.50;99.90;;;;;;5033001;28;20040;-69
2024/01/16 11:25:12;;;;;;;2.25;0.90;;;1.50;99.90;;;;;;5055787;28;20393;-69
2024/01/16 11:27:39;;;;;;;3.35;1.13;;;1.60;99.90;;;;;;5076422;28;20501;-68
2024/01/16 11:30:31;;;;;;;4.18;0.98;;;1.50;99.90;;;;;;5070140;28;20124;-69
2024/01/16 11:32:57;;;;;;;2.30;1.00;;;1.60;99.90;;;;;;5051866;28;20136;-69
2024/01/16 11:35:36;;;;;;;3.57;1.17;;;1.60;99.90;;;;;;5073983;28;20504;-68
2024/01/16 11:38:16;;;;;;;4.22;1.38;;;1.60;99.90;;;;;;5058891;28;20120;-69
2024/01/16 11:40:43;;;;;;;2.92;1.15;;;1.50;99.90;;;;;;5057349;28;20121;-69
2024/01/16 11:43:32;;;;;;;4.93;1.42;;;1.60;99.90;;;;;;5044517;28;20063;-69
2024/01/16 11:46:01;;;;;;;4.50;1.17;;;1.60;99.90;;;;;;5042355;28;20133;-69
2024/01/16 11:48:27;;;;;;;3.45;0.90;;;1.70;99.90;;;;;;5057348;28;20104;-68
2024/01/16 11:50:53;;;;;;;3.73;0.80;;;1.70;99.90;;;;;;5069104;28;20559;-69
2024/01/16 11:53:41;;;;;;;;;;;1.80;99.90;;;;;;5067603;28;20543;-68
2024/01/16 11:56:18;;;;;;;6.55;1.02;;;1.80;99.90;;;;;;5050700;28;20143;-68
2024/01/16 11:59:22;;;;;;;3.17;1.40;;;1.90;99.90;;;;;;5038805;28;20094;-67
2024/01/16 12:01:52;;;;;;;8.02;1.25;;;1.90;99.90;;;;;;5076537;28;20052;-68
2024/01/16 12:04:20;;;;;;;2.05;1.00;;;1.90;99.90;;;;;;5048471;28;20051;-68
2024/01/16 12:06:57;;;;;;;5.32;1.52;;;2.00;99.90;;;;;;5038832;28;20214;-68
2024/01/16 12:09:25;;;;;;;;;;;2.00;99.90;;;;;;5048845;28;20051;-68
2024/01/16 12:12:01;;;;;;;6.05;1.50;;;2.00;99.90;;;;;;5072277;28;19916;-69
2024/01/16 12:14:27;;;;;;;4.63;1.60;;;2.00;99.90;;;;;;5050834;28;20048;-68
2024/01/16 12:17:08;;;;;;;3.38;1.55;;;2.10;99.90;;;;;;5031255;28;20514;-69
2024/01/16 12:19:34;;;;;;;5.05;1.85;;;2.10;99.90;;;;;;5051289;28;20303;-68
2024/01/16 12:22:00;;;;;;;5.45;2.22;;;2.20;99.90;;;;;;5070012;28;20044;-68
2024/01/16 12:24:26;;;;;;;7.63;2.42;;;2.20;99.90;;;;;;5067715;28;20040;-68
2024/01/16 12:26:52;;;;;;;4.73;1.93;;;2.20;99.90;;;;;;5057056;28;20131;-69
2024/01/16 12:29:18;;;;;;;5.90;2.10;;;2.30;99.90;;;;;;5056217;28;20036;-69
2024/01/16 12:31:44;;;;;;;13.73;2.40;;;2.40;99.90;;;;;;5051460;28;20567;-69
2024/01/16 12:34:10;;;;;;;5.77;1.87;;;2.40;99.90;;;;;;5052088;28;20050;-68
2024/01/16 12:36:36;;;;;;;12.73;2.13;;;2.50;99.90;;;;;;5072848;28;20036;-68
2024/01/16 12:39:02;;;;;;;4.95;1.95;;;2.60;99.90;;;;;;5037106;28;20285;-68
2024/01/16 12:41:33;;;;;;;7.85;2.70;;;2.70;99.90;;;;;;5045087;28;20036;-68
2024/01/16 12:43:59;;;;;;;5.28;2.35;;;2.70;99.90;;;;;;5077798;28;20134;-68
2024/01/16 12:46:25;;;;;;;5.13;2.53;;;2.70;99.90;;;;;;5039237;28;20215;-68
2024/01/16 12:48:51;;;;;;;5.60;2.27;;;2.70;99.90;;;;;;5075122;28;20049;-68
2024/01/16 12:51:23;;;;;;;8.40;2.30;;;2.70;99.90;;;;;;5062481;28;20758;-68
2024/01/16 12:53:50;;;;;;;6.82;2.10;;;2.60;99.90;;;;;;5073444;28;20425;-68
2024/01/16 12:56:22;;;;;;;7.45;2.25;;;2.60;99.90;;;;;;5058735;28;20504;-69
2024/01/16 12:58:47;;;;;;;6.47;2.20;;;2.60;99.90;;;;;;5063503;28;20224;-69